Latest Coastal Weather Observations for Neptune Island

IDS60701

Issued at 3:21 am CDT Tuesday 24 October 2017 (issued every 10 minutes, with the page automatically refreshed every 10 minutes)

About coastal observations | Map of coastal stations | Coastal observations for SA | Marine services | Other Formats
Station Details ID: 018115 Name: NEPTUNE ISLAND Lat: -35.34 Lon: 136.12 Height: 32.0 m
Data from the previous 72 hours. | See also: Recent months at Neptune Island
Date/Time
CDT
Temp
°C
Wind Pressure Rain since
9am
mm
Weather Cloud Vis
km
Sea
Height
m
Swell
Dir  Spd
kts
Gust
kts
hPa Trend Height
m
Period
s
Dir
24/03:00am 14.9 E 18 21 1013.1 - 0.0 - - - - - - -
24/02:30am 15.0 ESE 14 17 1013.6 - 0.0 - - - - - - -
24/02:00am 14.9 E 16 18 1014.0 - 0.0 - - - - - - -
24/01:30am 14.8 E 18 21 1014.0 - 0.0 - - - - - - -
24/01:00am 14.7 E 17 20 1014.3 - 0.0 - - - - - - -
24/12:30am 15.1 E 16 19 1014.8 - 0.0 - - - - - - -
24/12:00am 15.3 E 17 19 1014.8 - 0.0 - - - - - - -
 
Date/Time
CDT
Temp
°C
Wind Pressure Rain since
9am
mm
Weather Cloud Vis
km
Sea
Height
m
Swell
Dir  Spd
kts
Gust
kts
hPa Trend Height
m
Period
s
Dir
23/11:30pm 15.5 ESE 15 18 1014.8 - 0.0 - - - - - - -
23/11:00pm 15.5 ESE 13 16 1015.2 - 0.0 - - - - - - -
23/10:30pm 15.3 ESE 13 15 1015.5 - 0.0 - - - - - - -
23/10:00pm 15.1 SE 14 17 1015.6 - 0.0 - - - - - - -
23/09:30pm 15.0 SE 14 16 1015.5 - 0.0 - - - - - - -
23/09:00pm 15.0 SSE 14 16 1015.6 - 0.0 - - - - - - -
23/08:30pm 14.9 SSE 12 14 1015.8 - 0.0 - - - - - - -
23/08:00pm 14.8 SSE 12 15 1015.6 - 0.0 - - - - - - -
23/07:30pm 15.0 SSE 12 14 1015.8 - 0.0 - - - - - - -
23/07:00pm 15.2 SSE 10 12 1015.7 - 0.0 - - - - - - -
23/06:30pm 15.3 SSE 10 13 1015.9 - 0.0 - - - - - - -
23/06:00pm 15.5 SSE 10 12 1015.8 - 0.0 - - - - - - -
23/05:30pm 15.5 SE 9 11 1015.7 - 0.0 - - - - - - -
23/05:00pm 15.7 SSE 7 9 1015.9 - 0.0 - - - - - - -
23/04:30pm 16.4 SE 6 8 1016.0 - 0.0 - - - - - - -
23/04:00pm 16.0 E 5 7 1016.2 - 0.0 - - - - - - -
23/03:30pm 15.3 ENE 5 6 1016.5 - 0.0 - - - - - - -
23/03:00pm 15.7 NE 7 9 1016.9 - 0.0 - - - - - - -
23/02:30pm 16.3 ENE 11 14 1016.7 - 0.0 - - - - - - -
23/02:00pm 15.5 ENE 10 12 1017.1 - 0.0 - - - - - - -
23/01:30pm 16.3 ENE 9 11 1017.5 - 0.0 - - - - - - -
23/01:00pm 15.9 ENE 6 8 1018.3 - 0.0 - - - - - - -
23/12:30pm 16.2 ENE 5 7 1018.6 - 0.0 - - - - - - -
23/12:00pm 15.7 ENE 6 8 1018.9 - 0.0 - - - - - - -
23/11:30am 15.1 NE 6 8 1019.0 - 0.0 - - - - - - -
23/11:00am 14.7 NE 6 9 1019.2 - 0.0 - - - - - - -
23/10:30am 15.5 ENE 8 11 1019.1 - 0.0 - - - - - - -
23/10:00am 14.9 ENE 10 12 1019.4 - 0.0 - - - - - - -
23/09:30am 14.5 ENE 9 11 1019.1 - 0.0 - - - - - - -
23/09:00am 14.6 NE 9 13 1019.1 - 0.0 - - - - - - -
23/08:30am 14.1 ENE 8 11 1019.2 - 0.0 - - - - - - -
23/08:00am 13.9 ENE 7 9 1019.1 - 0.0 - - - - - - -
23/07:30am 13.4 E 9 11 1019.3 - 0.0 - - - - - - -
23/07:00am 13.0 E 8 10 1019.2 - 0.0 - - - - - - -
23/06:30am 12.6 E 10 11 1018.9 - 0.0 - - - - - - -
23/06:00am 12.2 ESE 11 13 1018.6 - 0.0 - - - - - - -
23/05:30am 12.5 E 9 11 1018.8 - 0.0 - - - - - - -
23/05:00am 12.6 ESE 10 14 1018.7 - 0.0 - - - - - - -
23/04:30am 12.6 E 10 13 1019.0 - 0.0 - - - - - - -
23/04:00am 13.0 ESE 8 12 1019.2 - 0.0 - - - - - - -
23/03:30am 13.1 E 9 11 1019.2 - 0.0 - - - - - - -
23/03:00am 13.3 ESE 7 10 1019.3 - 0.0 - - - - - - -
23/02:30am 13.2 E 6 8 1019.9 - 0.0 - - - - - - -
23/02:00am 13.2 ESE 7 10 1020.3 - 0.0 - - - - - - -
23/01:30am 13.4 SE 7 10 1020.8 - 0.0 - - - - - - -
23/01:00am 13.3 SE 8 11 1021.2 - 0.0 - - - - - - -
23/12:30am 13.5 SSE 9 12 1021.5 - 0.0 - - - - - - -
23/12:00am 13.5 SSE 8 11 1021.8 - 0.0 - - - - - - -
 
Date/Time
CDT
Temp
°C
Wind Pressure Rain since
9am
mm
Weather Cloud Vis
km
Sea
Height
m
Swell
Dir  Spd
kts
Gust
kts
hPa Trend Height
m
Period
s
Dir
22/11:30pm 13.5 S 11 14 1021.7 - 0.0 - - - - - - -
22/11:00pm 13.6 S 12 16 1021.9 - 0.0 - - - - - - -
22/10:30pm 13.6 SSE 8 10 1022.3 - 0.0 - - - - - - -
22/10:00pm 13.6 S 11 13 1022.3 - 0.0 - - - - - - -
22/09:30pm 13.6 S 10 12 1022.1 - 0.0 - - - - - - -
22/09:00pm 13.5 S 9 12 1022.0 - 0.0 - - - - - - -
22/08:30pm 13.6 S 11 16 1021.8 - 0.0 - - - - - - -
22/08:00pm 13.6 S 11 15 1021.6 - 0.0 - - - - - - -
22/07:30pm 13.7 S 9 16 1021.6 - 0.0 - - - - - - -
22/07:00pm 13.9 S 9 11 1021.8 - 0.0 - - - - - - -
22/06:30pm 14.0 S 12 14 1021.5 - 0.0 - - - - - - -
22/06:00pm 14.2 S 12 15 1021.3 - 0.0 - - - - - - -
22/05:30pm 14.1 S 10 14 1021.4 - 0.0 - - - - - - -
22/05:00pm 14.3 S 10 13 1021.9 - 0.0 - - - - - - -
22/04:30pm 14.5 S 9 12 1022.3 - 0.0 - - - - - - -
22/04:00pm 14.5 SSW 11 13 1022.6 - 0.0 - - - - - - -
22/03:30pm 14.3 SSW 10 12 1022.7 - 0.0 - - - - - - -
22/03:00pm 14.1 SSW 11 14 1023.2 - 0.0 - - - - - - -
22/02:30pm 14.9 SW 6 8 1023.3 - 0.0 - - - - - - -
22/02:00pm 13.9 SSW 12 15 1023.4 - 0.0 - - - - - - -
22/01:30pm 14.8 SSW 11 13 1023.5 - 0.0 - - - - - - -
22/01:00pm 14.3 SSW 11 13 1023.7 - 0.0 - - - - - - -
22/12:30pm 14.0 SSW 10 13 1023.8 - 0.0 - - - - - - -
22/12:00pm 13.7 SSW 10 12 1024.1 - 0.0 - - - - - - -
22/11:30am 14.5 S 12 14 1024.2 - 0.0 - - - - - - -
22/11:00am 14.3 S 13 15 1024.2 - 0.0 - - - - - - -
22/10:30am 13.9 SSW 11 15 1024.3 - 0.0 - - - - - - -
22/10:00am 14.1 S 12 16 1024.2 - 0.0 - - - - - - -
22/09:30am 13.7 S 12 15 1024.4 - 0.0 - - - - - - -
22/09:00am 13.7 S 13 17 1024.3 - - - - - - - - -
22/08:30am 13.1 SSW 11 14 1024.2 - - - - - - - - -
22/08:00am 13.0 SSW 11 17 1024.0 - - - - - - - - -
22/07:30am 12.9 SSW 13 17 1024.0 - - - - - - - - -
22/07:00am 12.6 SSW 13 15 1024.0 - - - - - - - - -
22/06:30am 13.0 S 14 20 1023.9 - - - - - - - - -
22/06:00am 12.7 SSW 13 17 1023.8 - - - - - - - - -
22/05:30am 12.9 SSW 14 20 1023.8 - - - - - - - - -
22/05:00am 12.8 S 15 18 1023.8 - - - - - - - - -
22/04:30am 12.8 SSW 13 19 1023.9 - - - - - - - - -
22/04:00am 12.8 S 13 16 1024.0 - - - - - - - - -
22/03:30am 12.8 SSW 16 18 1024.4 - - - - - - - - -
22/03:00am 12.9 S 13 17 1024.6 - - - - - - - - -
22/02:30am 12.9 SSW 15 20 1024.7 - - - - - - - - -
22/02:00am 13.1 SSW 13 17 1025.0 - - - - - - - - -
22/01:30am 13.1 S 15 20 1025.4 - 0.0 - - - - - - -
22/01:00am 13.1 S 18 22 1025.8 - 0.0 - - - - - - -
22/12:30am 12.9 S 16 21 1026.0 - 0.0 - - - - - - -
22/12:00am 13.0 S 18 22 1026.2 - 0.0 - - - - - - -
 
Date/Time
CDT
Temp
°C
Wind Pressure Rain since
9am
mm
Weather Cloud Vis
km
Sea
Height
m
Swell
Dir  Spd
kts
Gust
kts
hPa Trend Height
m
Period
s
Dir
21/11:30pm 13.3 S 16 19 1026.4 - 0.0 - - - - - - -
21/11:00pm 13.3 S 17 21 1026.5 - 0.0 - - - - - - -
21/10:30pm 13.4 S 15 21 1026.9 - 0.0 - - - - - - -
21/10:00pm 12.9 SSW 19 23 1027.0 - 0.0 - - - - - - -
21/09:30pm 13.2 S 17 22 1027.3 - 0.0 - - - - - - -
21/09:00pm 13.3 S 17 21 1027.2 - 0.0 - - - - - - -
21/08:30pm 12.6 SSW 16 22 1027.4 - 0.0 - - - - - - -
21/08:00pm 12.2 SSW 22 26 1027.3 - 0.0 - - - - - - -
21/07:39pm 13.3 SSW 17 27 1027.0 - 0.0 - - - - - - -
21/07:30pm 13.4 SSW 17 23 1027.2 - 0.0 - - - - - - -
21/07:00pm 13.3 SSW 20 24 1027.1 - 0.0 - - - - - - -
21/06:30pm 13.6 SSW 16 20 1027.0 - 0.0 - - - - - - -
21/06:00pm 13.8 SSW 16 20 1027.2 - 0.0 - - - - - - -
21/05:30pm 14.0 SSW 16 20 1027.3 - 0.0 - - - - - - -
21/05:00pm 13.8 SSW 16 19 1027.5 - 0.0 - - - - - - -
21/04:30pm 14.2 SSW 15 19 1027.7 - 0.0 - - - - - - -
21/04:00pm 14.8 SSW 15 19 1028.1 - 0.0 - - - - - - -
21/03:30pm 14.6 SSW 14 18 1028.2 - 0.0 - - - - - - -
21/03:00pm 14.7 SSW 15 18 1028.7 - 0.0 - - - - - - -
21/02:30pm 14.3 SSW 13 16 1028.9 - 0.0 - - - - - - -
21/02:00pm 14.9 SSW 13 15 1029.1 - 0.0 - - - - - - -
21/01:30pm 15.1 SSW 11 15 1029.3 - 0.0 - - - - - - -
21/01:00pm 14.6 S 13 16 1029.5 - 0.0 - - - - - - -
21/12:30pm 14.1 SSW 12 16 1029.9 - 0.0 - - - - - - -
21/12:00pm 14.4 S 12 16 1030.4 - 0.0 - - - - - - -
21/11:30am 14.2 S 13 17 1030.4 - 0.0 - - - - - - -
21/11:00am 14.4 S 10 13 1030.7 - 0.0 - - - - - - -
21/10:30am 14.2 S 8 12 1030.8 - 0.0 - - - - - - -
21/10:00am 13.4 SSW 13 18 1030.9 - 0.0 - - - - - - -
21/09:30am 13.5 S 11 13 1030.7 - 0.0 - - - - - - -
21/09:00am 13.4 SSE 11 14 1030.6 - 0.0 - - - - - - -
21/08:30am 13.1 SSE 13 17 1030.6 - 0.0 - - - - - - -
21/08:00am 12.7 S 12 16 1030.7 - 0.0 - - - - - - -
21/07:30am 12.8 SSE 10 13 1030.5 - 0.0 - - - - - - -
21/07:00am 12.5 S 9 14 1030.5 - 0.0 - - - - - - -
21/06:30am 12.4 SSE 10 14 1030.3 - 0.0 - - - - - - -
21/06:00am 12.5 SSE 10 13 1030.2 - 0.0 - - - - - - -
21/05:30am 12.4 SSE 10 13 1030.0 - 0.0 - - - - - - -
21/05:00am 12.5 SE 12 15 1029.8 - 0.0 - - - - - - -
21/04:30am 12.7 SSE 10 14 1030.1 - 0.0 - - - - - - -
21/04:00am 12.7 SSE 12 16 1030.2 - 0.0 - - - - - - -
21/03:30am 12.6 SE 10 14 1030.6 - 0.0 - - - - - - -

Other Formats:

Comma delimited format used in spreadsheet applications
http://www.bom.gov.au/fwo/IDS60701/IDS60701.94804.axf

JavaScript Object Notation format (JSON) in row-major order
http://www.bom.gov.au/fwo/IDS60701/IDS60701.94804.json